Terminal Aerodrome Forecast
Issued by NWS

Home | Current Version | Previous Version | Text Only | Print | Product List | Glossary On
Versions: 1 2 3 4 5 6 7 8 9 10 11 12 13 14 15 16 17 18 19 20 21 22 23 24 25 26
000
FTUS43 KDLH 241700
TAFHYR
TAF
KHYR 241721Z 2418/2518 30004KT 2SM -SN BR BKN012 OVC030
      TEMPO 2419/2423 BKN007
     FM242300 VRB03KT P6SM OVC011
     FM250400 22006KT 6SM -SN BR OVC009
     FM250900 21007KT 5SM -FZDZ BR OVC007
     FM251700 19004KT P6SM -SN OVC012=

USA.gov is the U.S. government's official web portal to all federal, state and local government web resources and services.